createdAt,value
2019-02-12T00:01:49.623Z,98530.28
2019-02-12T00:04:17.015Z,98529.81
2019-02-12T00:06:44.606Z,98528.88
2019-02-12T00:09:12.025Z,98530.20
2019-02-12T00:11:39.871Z,98535.89
2019-02-12T00:14:07.386Z,98543.29
2019-02-12T00:16:34.785Z,98544.98
2019-02-12T00:19:02.543Z,98543.19
2019-02-12T00:21:30.173Z,98546.66
2019-02-12T00:23:57.590Z,98552.33
2019-02-12T00:26:25.001Z,98564.47
2019-02-12T00:28:52.378Z,98564.14
2019-02-12T00:31:19.779Z,98564.55
2019-02-12T00:33:47.189Z,98563.27
2019-02-12T00:36:14.581Z,98567.59
2019-02-12T00:38:41.984Z,98574.58
2019-02-12T00:41:09.418Z,98578.48
2019-02-12T00:43:36.798Z,98591.46
2019-02-12T00:46:04.209Z,98589.81
2019-02-12T00:48:31.599Z,98591.19
2019-02-12T00:50:59.010Z,98589.42
2019-02-12T00:53:26.424Z,98596.67
2019-02-12T00:55:53.815Z,98597.91
2019-02-12T00:58:21.219Z,98600.10
2019-02-12T01:00:48.863Z,98608.28
2019-02-12T01:03:16.270Z,98614.30
2019-02-12T01:05:43.671Z,98615.11
2019-02-12T01:08:11.797Z,98622.83
2019-02-12T01:10:39.211Z,98625.80
2019-02-12T01:13:06.784Z,98630.55
2019-02-12T01:15:34.167Z,98616.44
2019-02-12T01:18:01.570Z,98617.33
2019-02-12T01:20:28.962Z,98611.72
2019-02-12T01:22:56.441Z,98603.94
2019-02-12T01:25:23.831Z,98600.89
2019-02-12T01:27:51.324Z,98607.88
2019-02-12T01:30:18.720Z,98608.67
2019-02-12T01:32:46.129Z,98606.11
2019-02-12T01:35:13.581Z,98601.46
2019-02-12T01:37:40.958Z,98607.52
2019-02-12T01:40:08.383Z,98610.12
2019-02-12T01:42:35.783Z,98613.53
2019-02-12T01:45:03.182Z,98614.84
2019-02-12T01:47:30.773Z,98605.84
2019-02-12T01:49:58.164Z,98615.80
2019-02-12T01:52:25.562Z,98610.67
2019-02-12T01:54:52.951Z,98620.62
2019-02-12T01:57:20.370Z,98609.02
2019-02-12T01:59:47.768Z,98609.04
2019-02-12T02:02:15.344Z,98616.78
2019-02-12T02:04:42.765Z,98612.06
2019-02-12T02:07:10.152Z,98614.70
2019-02-12T02:09:37.555Z,98615.11
2019-02-12T02:12:04.943Z,98612.09
2019-02-12T02:14:32.362Z,98615.56
2019-02-12T02:16:59.763Z,98613.84
2019-02-12T02:19:27.160Z,98612.99
2019-02-12T02:21:54.567Z,98614.33
2019-02-12T02:24:22.023Z,98615.20
2019-02-12T02:26:49.414Z,98619.96
2019-02-12T02:29:16.851Z,98623.83
2019-02-12T02:31:44.221Z,98623.31
2019-02-12T02:34:11.652Z,98630.99
2019-02-12T02:36:39.053Z,98633.13
2019-02-12T02:39:06.587Z,98647.79
2019-02-12T02:41:33.975Z,98653.34
2019-02-12T02:44:01.378Z,98650.25
2019-02-12T02:46:28.789Z,98662.34
2019-02-12T02:48:56.190Z,98666.18
2019-02-12T02:51:23.594Z,98661.41
2019-02-12T02:53:50.975Z,98652.29
2019-02-12T02:56:18.385Z,98653.18
2019-02-12T02:58:45.777Z,98660.52
2019-02-12T03:01:13.266Z,98664.77
2019-02-12T03:03:40.652Z,98660.78
2019-02-12T03:06:08.198Z,98667.69
2019-02-12T03:08:35.695Z,98667.23
2019-02-12T03:11:03.504Z,98667.63
2019-02-12T03:13:30.898Z,98669.12
2019-02-12T03:15:58.430Z,98666.91
2019-02-12T03:18:25.814Z,98681.27
2019-02-12T03:20:53.226Z,98672.63
2019-02-12T03:23:20.606Z,98666.48
2019-02-12T03:25:47.999Z,98672.47
2019-02-12T03:28:15.409Z,98672.02
2019-02-12T03:30:42.807Z,98663.77
2019-02-12T03:33:10.229Z,98662.91
2019-02-12T03:35:37.629Z,98665.00
2019-02-12T03:38:05.042Z,98667.11
2019-02-12T03:40:32.435Z,98656.20
2019-02-12T03:42:59.833Z,98656.16
2019-02-12T03:45:27.223Z,98658.70
2019-02-12T03:47:54.627Z,98656.07
2019-02-12T03:50:22.572Z,98653.50
2019-02-12T03:52:49.974Z,98649.97
2019-02-12T03:55:17.355Z,98659.84
2019-02-12T03:57:44.748Z,98660.30
2019-02-12T04:00:13.101Z,98660.27
2019-02-12T04:02:40.498Z,98658.55
2019-02-12T04:05:07.891Z,98663.86
2019-02-12T04:07:35.331Z,98664.32
2019-02-12T04:10:02.718Z,98662.67
2019-02-12T04:12:30.140Z,98657.13
2019-02-12T04:14:58.205Z,98657.67
2019-02-12T04:17:25.592Z,98661.61
2019-02-12T04:19:53.118Z,98661.25
2019-02-12T04:22:22.445Z,98657.42
2019-02-12T04:24:48.235Z,98654.39
2019-02-12T04:27:15.627Z,98666.84
2019-02-12T04:29:43.032Z,98664.30
2019-02-12T04:32:10.433Z,98667.29
2019-02-12T04:34:37.871Z,98667.70
2019-02-12T04:37:05.545Z,98664.18
2019-02-12T04:39:33.038Z,98666.72
2019-02-12T04:42:00.488Z,98669.77
2019-02-12T04:44:27.908Z,98672.38
2019-02-12T04:46:55.291Z,98673.67
2019-02-12T04:49:22.688Z,98666.77
2019-02-12T04:51:50.275Z,98671.53
2019-02-12T04:54:17.871Z,98671.92
2019-02-12T04:56:46.514Z,98675.36
2019-02-12T04:59:13.923Z,98673.91
2019-02-12T05:01:41.335Z,98678.12
2019-02-12T05:04:08.756Z,98672.41
2019-02-12T05:06:36.146Z,98676.30
2019-02-12T05:09:11.876Z,98682.69
2019-02-12T05:11:39.348Z,98684.81
2019-02-12T05:14:06.753Z,98687.34
2019-02-12T05:16:34.152Z,98688.20
2019-02-12T05:19:01.583Z,98685.14
2019-02-12T05:21:28.999Z,98688.11
2019-02-12T05:23:56.450Z,98687.17
2019-02-12T05:26:24.666Z,98686.30
2019-02-12T05:28:52.066Z,98686.67
2019-02-12T05:31:19.638Z,98695.33
2019-02-12T05:33:47.018Z,98691.55
2019-02-12T05:36:14.421Z,98684.68
2019-02-12T05:38:41.802Z,98691.65
2019-02-12T05:41:11.219Z,98692.07
2019-02-12T05:43:36.740Z,98698.98
2019-02-12T05:46:04.273Z,98692.47
2019-02-12T05:48:31.825Z,98693.73
2019-02-12T05:50:59.231Z,98688.14
2019-02-12T05:53:26.762Z,98684.85
2019-02-12T05:55:54.135Z,98686.69
2019-02-12T05:58:21.539Z,98682.82
2019-02-12T06:00:48.937Z,98688.95
2019-02-12T06:03:16.335Z,98683.77
2019-02-12T06:05:43.763Z,98678.61
2019-02-12T06:08:11.286Z,98684.23
2019-02-12T06:10:39.505Z,98681.27
2019-02-12T06:13:06.915Z,98679.98
2019-02-12T06:15:34.616Z,98679.09
2019-02-12T06:18:02.129Z,98682.52
2019-02-12T06:20:29.555Z,98681.19
2019-02-12T06:23:03.311Z,98685.37
2019-02-12T06:25:24.411Z,98691.70
2019-02-12T06:27:51.860Z,98693.99
2019-02-12T06:30:21.403Z,98693.94
2019-02-12T06:32:48.972Z,98702.59
2019-02-12T06:35:16.415Z,98706.08
2019-02-12T06:37:43.898Z,98711.23
2019-02-12T06:40:11.316Z,98707.37
2019-02-12T06:42:38.737Z,98714.63
2019-02-12T06:45:11.111Z,98713.78
2019-02-12T06:47:38.506Z,98729.83
2019-02-12T06:50:08.648Z,98730.78
2019-02-12T06:52:36.040Z,98726.91
2019-02-12T06:55:04.233Z,98723.06
2019-02-12T06:57:31.621Z,98732.49
2019-02-12T06:59:59.010Z,98735.01
2019-02-12T07:02:38.601Z,98730.22
2019-02-12T07:05:05.991Z,98734.99
2019-02-12T07:07:35.119Z,98732.80
2019-02-12T07:10:02.594Z,98733.56
2019-02-12T07:12:36.608Z,98734.38
2019-02-12T07:15:14.404Z,98736.07
2019-02-12T07:17:46.220Z,98740.81
2019-02-12T07:23:26.144Z,98750.63
2019-02-12T07:26:10.238Z,98751.07
2019-02-12T07:28:52.487Z,98754.97
2019-02-12T07:34:56.872Z,98756.70
2019-02-12T07:37:26.894Z,98764.69
2019-02-12T07:39:56.687Z,98774.64
2019-02-12T07:42:27.493Z,98776.72
2019-02-12T07:48:13.540Z,98782.11
2019-02-12T07:53:54.706Z,98793.11
2019-02-12T07:59:21.775Z,98807.81
2019-02-12T08:05:11.567Z,98810.59
2019-02-12T08:07:54.798Z,98804.23
2019-02-12T08:10:26.735Z,98806.11
2019-02-12T08:12:54.655Z,98800.30
2019-02-12T08:15:27.336Z,98793.47
2019-02-12T08:17:57.457Z,98795.34
2019-02-12T08:20:39.328Z,98798.14
2019-02-12T08:26:31.718Z,98796.66
2019-02-12T08:32:22.718Z,98792.55
2019-02-12T08:35:04.604Z,98799.42
2019-02-12T08:40:28.906Z,98777.91
2019-02-12T08:42:59.161Z,98783.77
2019-02-12T08:45:34.105Z,98793.27
2019-02-12T08:48:10.186Z,98789.03
2019-02-12T08:50:47.513Z,98788.95
2019-02-12T08:53:23.407Z,98785.89
2019-02-12T08:56:07.540Z,98801.34
2019-02-12T08:58:40.520Z,98787.79
2019-02-12T09:01:12.732Z,98793.69
2019-02-12T09:03:57.959Z,98795.89
2019-02-12T09:06:34.125Z,98799.02
2019-02-12T09:09:22.262Z,98792.19
2019-02-12T09:12:12.339Z,98799.22
2019-02-12T09:14:49.365Z,98807.41
2019-02-12T09:20:30.745Z,98807.43
2019-02-12T09:23:01.878Z,98801.91
2019-02-12T09:25:29.326Z,98801.38
2019-02-12T09:28:02.216Z,98789.69
2019-02-12T09:33:38.553Z,98788.25
2019-02-12T09:39:23.364Z,98789.66
2019-02-12T09:42:06.001Z,98791.86
2019-02-12T09:44:33.816Z,98798.20
2019-02-12T09:47:07.438Z,98801.53
2019-02-12T09:49:37.217Z,98811.44
2019-02-12T09:52:06.917Z,98811.63
2019-02-12T09:54:37.681Z,98816.25
2019-02-12T09:57:10.862Z,98817.78
2019-02-12T09:59:37.803Z,98830.40
2019-02-12T10:02:10.557Z,98840.37
2019-02-12T10:04:52.479Z,98840.71
2019-02-12T10:07:22.199Z,98845.88
2019-02-12T10:09:49.219Z,98834.59
2019-02-12T10:12:16.370Z,98845.08
2019-02-12T10:15:02.157Z,98839.22
2019-02-12T10:17:44.227Z,98842.35
2019-02-12T10:20:12.806Z,98846.48
2019-02-12T10:22:45.541Z,98845.06
2019-02-12T10:25:13.572Z,98843.84
2019-02-12T10:27:44.406Z,98855.06
2019-02-12T10:30:19.144Z,98852.11
2019-02-12T10:32:46.242Z,98854.20
2019-02-12T10:35:13.309Z,98870.60
2019-02-12T10:37:40.286Z,98866.37
2019-02-12T10:40:07.232Z,98866.89
2019-02-12T10:42:34.174Z,98868.95
2019-02-12T10:45:01.199Z,98875.16
2019-02-12T10:47:28.150Z,98878.67
2019-02-12T10:49:55.117Z,98870.97
2019-02-12T10:52:22.206Z,98864.25
2019-02-12T10:54:49.179Z,98854.08
2019-02-12T10:57:16.149Z,98854.66
2019-02-12T10:59:43.271Z,98869.16
2019-02-12T11:02:10.365Z,98871.25
2019-02-12T11:04:37.324Z,98862.54
2019-02-12T11:07:04.265Z,98858.88
2019-02-12T11:09:31.202Z,98854.11
2019-02-12T11:11:58.147Z,98856.09
2019-02-12T11:14:25.378Z,98864.53
2019-02-12T11:16:52.319Z,98859.86
2019-02-12T11:19:19.259Z,98857.02
2019-02-12T11:21:46.471Z,98858.70
2019-02-12T11:24:13.413Z,98849.06
2019-02-12T11:26:40.375Z,98838.34
2019-02-12T11:29:07.875Z,98841.42
2019-02-12T11:31:34.923Z,98842.09
2019-02-12T11:34:01.873Z,98841.42
2019-02-12T11:36:28.903Z,98835.66
2019-02-12T11:38:55.968Z,98833.22
2019-02-12T11:41:22.907Z,98830.05
2019-02-12T11:43:49.990Z,98824.72
2019-02-12T11:46:17.017Z,98820.77
2019-02-12T11:48:44.100Z,98824.91
2019-02-12T11:51:11.046Z,98819.89
2019-02-12T11:53:38.205Z,98814.45
2019-02-12T11:56:05.235Z,98809.92
2019-02-12T11:58:32.367Z,98806.12
2019-02-12T12:00:59.718Z,98802.77
2019-02-12T12:03:26.757Z,98797.61
2019-02-12T12:05:53.926Z,98796.89
2019-02-12T12:08:21.049Z,98798.09
2019-02-12T12:10:48.099Z,98795.89
2019-02-12T12:13:15.054Z,98791.40
2019-02-12T12:15:42.056Z,98788.53
2019-02-12T12:18:09.046Z,98791.15
2019-02-12T12:20:36.283Z,98778.80
2019-02-12T12:23:03.275Z,98776.24
2019-02-12T12:25:30.249Z,98769.33
2019-02-12T12:27:57.288Z,98770.16
2019-02-12T12:30:24.265Z,98782.84
2019-02-12T12:32:51.336Z,98776.75
2019-02-12T12:35:18.370Z,98772.30
2019-02-12T12:37:45.368Z,98770.59
2019-02-12T12:40:12.320Z,98770.20
2019-02-12T12:42:39.330Z,98763.68
2019-02-12T12:45:07.995Z,98747.38
2019-02-12T12:47:34.964Z,98754.37
2019-02-12T12:50:01.914Z,98750.49
2019-02-12T12:52:29.661Z,98754.74
2019-02-12T12:54:59.861Z,98758.52
2019-02-12T12:57:25.419Z,98758.48
2019-02-12T12:59:53.182Z,98762.94
2019-02-12T13:02:20.699Z,98757.96
2019-02-12T13:04:52.551Z,98748.61
2019-02-12T13:07:21.182Z,98760.72
2019-02-12T13:09:48.573Z,98758.73
2019-02-12T13:12:16.064Z,98762.52
2019-02-12T13:14:43.458Z,98773.19
2019-02-12T13:17:11.566Z,98756.44
2019-02-12T13:19:38.386Z,98753.17
2019-02-12T13:22:05.928Z,98750.52
2019-02-12T13:24:33.358Z,98755.17
2019-02-12T13:27:01.077Z,98752.22
2019-02-12T13:29:28.500Z,98748.02
2019-02-12T13:31:55.914Z,98752.13
2019-02-12T13:34:23.499Z,98749.98
2019-02-12T13:36:50.903Z,98746.46
2019-02-12T13:39:18.322Z,98744.70
2019-02-12T13:41:45.770Z,98748.44
2019-02-12T13:44:12.706Z,98748.39
2019-02-12T13:46:40.223Z,98755.20
2019-02-12T13:49:08.415Z,98752.33
2019-02-12T13:51:35.883Z,98749.88
2019-02-12T13:54:04.814Z,98742.08
2019-02-12T13:56:31.005Z,98742.38
2019-02-12T13:58:58.444Z,98739.12
2019-02-12T14:01:25.988Z,98738.48
2019-02-12T14:03:53.439Z,98736.36
2019-02-12T14:06:20.963Z,98732.08
2019-02-12T14:08:47.898Z,98725.96
2019-02-12T14:11:15.309Z,98736.59
2019-02-12T14:13:42.764Z,98732.14
2019-02-12T14:16:09.732Z,98731.97
2019-02-12T14:18:36.675Z,98724.39
2019-02-12T14:21:03.656Z,98725.15
2019-02-12T14:23:31.101Z,98721.42
2019-02-12T14:25:58.559Z,98716.84
2019-02-12T14:28:26.008Z,98725.77
2019-02-12T14:30:54.182Z,98715.47
2019-02-12T14:33:21.283Z,98718.98
2019-02-12T14:35:48.235Z,98717.73
2019-02-12T14:38:15.213Z,98714.86
2019-02-12T14:40:42.173Z,98712.89
2019-02-12T14:43:14.076Z,98709.47
2019-02-12T14:45:36.578Z,98706.56
2019-02-12T14:48:04.207Z,98712.20
2019-02-12T14:50:31.612Z,98710.14
2019-02-12T14:52:59.634Z,98720.93
2019-02-12T14:55:33.640Z,98707.12
2019-02-12T14:57:54.604Z,98704.73
2019-02-12T15:00:22.033Z,98700.80
2019-02-12T15:02:49.472Z,98700.52
2019-02-12T15:05:16.874Z,98703.54
2019-02-12T15:07:44.291Z,98706.92
2019-02-12T15:10:11.695Z,98700.38
2019-02-12T15:12:39.654Z,98698.48
2019-02-12T15:15:09.146Z,98698.20
2019-02-12T15:17:37.381Z,98692.04
2019-02-12T15:20:08.455Z,98694.26
2019-02-12T15:22:35.929Z,98690.55
2019-02-12T15:25:03.355Z,98687.73
2019-02-12T15:27:30.778Z,98682.68
2019-02-12T15:29:58.190Z,98681.73
2019-02-12T15:32:25.600Z,98682.83
2019-02-12T15:34:53.005Z,98685.74
2019-02-12T15:37:20.467Z,98681.09
2019-02-12T15:39:47.872Z,98672.53
2019-02-12T15:42:15.282Z,98671.80
2019-02-12T15:44:42.844Z,98671.61
2019-02-12T15:47:10.256Z,98668.05
2019-02-12T15:49:37.796Z,98663.58
2019-02-12T15:52:05.179Z,98667.95
2019-02-12T15:54:32.581Z,98666.30
2019-02-12T15:57:00.007Z,98664.04
2019-02-12T15:59:27.395Z,98667.00
2019-02-12T16:01:54.797Z,98659.83
2019-02-12T16:04:25.767Z,98660.63
2019-02-12T16:06:49.891Z,98664.08
2019-02-12T16:09:17.814Z,98661.03
2019-02-12T16:11:44.933Z,98666.55
2019-02-12T16:14:12.370Z,98672.05
2019-02-12T16:16:39.975Z,98673.89
2019-02-12T16:19:07.806Z,98675.84
2019-02-12T16:21:34.993Z,98676.26
2019-02-12T16:24:02.497Z,98674.09
2019-02-12T16:26:29.934Z,98678.72
2019-02-12T16:28:57.571Z,98681.36
2019-02-12T16:31:24.962Z,98685.52
2019-02-12T16:33:52.483Z,98675.60
2019-02-12T16:36:20.587Z,98677.31
2019-02-12T16:38:48.957Z,98680.52
2019-02-12T16:41:15.855Z,98682.00
2019-02-12T16:43:43.305Z,98688.50
2019-02-12T16:46:13.662Z,98688.32
2019-02-12T16:48:41.888Z,98683.91
2019-02-12T16:51:09.471Z,98687.12
2019-02-12T16:53:37.564Z,98693.05
2019-02-12T16:56:08.368Z,98696.95
2019-02-12T16:58:32.391Z,98693.27
2019-02-12T17:00:59.844Z,98699.09
2019-02-12T17:03:27.454Z,98706.59
2019-02-12T17:05:54.923Z,98707.88
2019-02-12T17:08:22.356Z,98704.31
2019-02-12T17:10:49.744Z,98701.22
2019-02-12T17:13:17.146Z,98706.64
2019-02-12T17:15:44.718Z,98705.58
2019-02-12T17:18:12.232Z,98708.11
2019-02-12T17:20:39.650Z,98704.67
2019-02-12T17:23:07.051Z,98705.05
2019-02-12T17:25:34.468Z,98706.08
2019-02-12T17:28:01.983Z,98711.95
2019-02-12T17:30:29.416Z,98715.38
2019-02-12T17:32:56.891Z,98726.05
2019-02-12T17:35:24.280Z,98723.14
2019-02-12T17:37:51.802Z,98725.77
2019-02-12T17:40:19.228Z,98733.11
2019-02-12T17:42:46.644Z,98736.64
2019-02-12T17:45:14.043Z,98737.13
2019-02-12T17:47:41.453Z,98742.70
2019-02-12T17:50:09.750Z,98742.30
2019-02-12T17:52:37.187Z,98750.19
2019-02-12T17:55:04.595Z,98748.98
2019-02-12T17:57:33.453Z,98750.64
2019-02-12T17:59:59.450Z,98755.48
2019-02-12T18:02:26.885Z,98755.58
2019-02-12T18:04:54.345Z,98757.36
2019-02-12T18:07:21.763Z,98752.44
2019-02-12T18:09:49.214Z,98752.23
2019-02-12T18:12:16.608Z,98748.77
2019-02-12T18:14:44.086Z,98752.11
2019-02-12T18:17:11.648Z,98756.34
2019-02-12T18:19:39.966Z,98755.25
2019-02-12T18:22:07.375Z,98765.44
2019-02-12T18:24:34.795Z,98757.34
2019-02-12T18:27:02.349Z,98764.95
2019-02-12T18:29:30.007Z,98769.41
2019-02-12T18:31:57.435Z,98768.13
2019-02-12T18:34:24.880Z,98776.02
2019-02-12T18:36:52.279Z,98771.14
2019-02-12T18:39:19.683Z,98766.73
2019-02-12T18:44:20.960Z,98779.63
2019-02-12T18:46:49.115Z,98784.41
2019-02-12T18:49:16.520Z,98784.08
2019-02-12T18:51:43.920Z,98781.00
2019-02-12T18:54:12.287Z,98783.78
2019-02-12T18:56:41.626Z,98789.92
2019-02-12T18:59:07.091Z,98796.02
2019-02-12T19:01:34.544Z,98793.30
2019-02-12T19:04:02.058Z,98788.00
2019-02-12T19:06:29.500Z,98791.75
2019-02-12T19:08:57.027Z,98789.71
2019-02-12T19:11:24.457Z,98790.45
2019-02-12T19:13:51.911Z,98790.36
2019-02-12T19:16:19.353Z,98795.16
2019-02-12T19:18:46.980Z,98797.70
2019-02-12T19:21:14.641Z,98793.45
2019-02-12T19:23:42.103Z,98792.30
2019-02-12T19:26:09.588Z,98794.52
2019-02-12T19:28:36.989Z,98800.09
2019-02-12T19:31:04.470Z,98791.45
2019-02-12T19:33:31.930Z,98800.07
2019-02-12T19:35:59.313Z,98801.29
2019-02-12T19:38:26.714Z,98795.66
2019-02-12T19:40:54.153Z,98797.20
2019-02-12T19:43:21.555Z,98801.64
2019-02-12T19:45:48.968Z,98798.13
2019-02-12T19:48:16.386Z,98789.89
2019-02-12T19:50:43.893Z,98794.08
2019-02-12T19:53:11.620Z,98800.56
2019-02-12T19:55:39.015Z,98795.63
2019-02-12T19:58:06.495Z,98802.70
2019-02-12T20:00:33.979Z,98809.29
2019-02-12T20:03:01.415Z,98810.64
2019-02-12T20:05:28.875Z,98809.87
2019-02-12T20:07:56.287Z,98819.09
2019-02-12T20:10:23.708Z,98821.38
2019-02-12T20:12:51.088Z,98821.79
2019-02-12T20:15:19.351Z,98830.05
2019-02-12T20:17:46.783Z,98830.95
2019-02-12T20:20:14.305Z,98830.11
2019-02-12T20:22:41.691Z,98826.22
2019-02-12T20:25:09.147Z,98835.33
2019-02-12T20:27:36.564Z,98829.21
2019-02-12T20:30:03.941Z,98838.62
2019-02-12T20:32:31.408Z,98835.58
2019-02-12T20:34:58.830Z,98826.13
2019-02-12T20:37:26.434Z,98828.77
2019-02-12T20:39:53.919Z,98826.59
2019-02-12T20:42:21.401Z,98836.52
2019-02-12T20:44:48.797Z,98832.20
2019-02-12T20:47:16.542Z,98833.60
2019-02-12T20:49:43.947Z,98827.55
2019-02-12T20:52:11.874Z,98828.11
2019-02-12T20:54:39.384Z,98829.89
2019-02-12T20:57:14.565Z,98827.34
2019-02-12T20:59:35.302Z,98840.69
2019-02-12T21:02:02.714Z,98841.13
2019-02-12T21:04:30.150Z,98841.13
2019-02-12T21:06:57.577Z,98840.30
2019-02-12T21:09:25.150Z,98835.98
2019-02-12T21:11:52.580Z,98843.79
2019-02-12T21:14:20.218Z,98838.61
2019-02-12T21:16:47.609Z,98834.78
2019-02-12T21:19:15.932Z,98839.57
2019-02-12T21:21:44.019Z,98840.42
2019-02-12T21:24:11.428Z,98840.91
2019-02-12T21:26:38.821Z,98830.48
2019-02-12T21:29:06.320Z,98831.84
2019-02-12T21:31:33.734Z,98828.38
2019-02-12T21:34:01.123Z,98827.06
2019-02-12T21:36:28.582Z,98827.95
2019-02-12T21:38:56.001Z,98839.66
2019-02-12T21:41:23.420Z,98832.27
2019-02-12T21:43:50.877Z,98824.44
2019-02-12T21:46:18.279Z,98828.72
2019-02-12T21:48:45.780Z,98824.45
2019-02-12T21:51:13.205Z,98830.55
2019-02-12T21:53:40.612Z,98820.61
2019-02-12T21:56:08.133Z,98818.03
2019-02-12T21:58:35.663Z,98816.32
2019-02-12T22:01:03.919Z,98809.11
2019-02-12T22:03:31.651Z,98814.81
2019-02-12T22:05:59.070Z,98812.71
2019-02-12T22:08:26.551Z,98811.45
2019-02-12T22:10:54.008Z,98815.81
2019-02-12T22:13:21.412Z,98817.18
2019-02-12T22:15:48.813Z,98822.89
2019-02-12T22:18:17.097Z,98811.66
2019-02-12T22:20:44.844Z,98818.53
2019-02-12T22:23:12.324Z,98818.53
2019-02-12T22:25:39.774Z,98817.23
2019-02-12T22:28:07.213Z,98818.16
2019-02-12T22:30:34.664Z,98819.94
2019-02-12T22:33:02.077Z,98819.05
2019-02-12T22:35:29.522Z,98812.17
2019-02-12T22:37:57.062Z,98825.53
2019-02-12T22:40:24.731Z,98817.77
2019-02-12T22:42:52.161Z,98821.69
2019-02-12T22:45:22.435Z,98818.27
2019-02-12T22:47:49.852Z,98818.76
2019-02-12T22:50:17.329Z,98817.04
2019-02-12T22:52:44.781Z,98814.00
2019-02-12T22:55:12.358Z,98807.94
2019-02-12T22:57:39.800Z,98807.05
2019-02-12T23:00:25.906Z,98808.73
2019-02-12T23:02:53.601Z,98810.44
2019-02-12T23:05:22.212Z,98816.89
2019-02-12T23:07:48.532Z,98808.70
2019-02-12T23:10:16.122Z,98808.70
2019-02-12T23:12:43.705Z,98803.92
2019-02-12T23:15:11.117Z,98803.02
2019-02-12T23:17:38.757Z,98807.48
2019-02-12T23:20:06.144Z,98813.10
2019-02-12T23:22:33.556Z,98803.97
2019-02-12T23:25:00.987Z,98809.12
2019-02-12T23:27:28.420Z,98802.63
2019-02-12T23:29:55.842Z,98810.50
2019-02-12T23:32:23.266Z,98809.27
2019-02-12T23:34:56.987Z,98814.91
2019-02-12T23:37:18.158Z,98810.55
2019-02-12T23:39:45.626Z,98809.27
2019-02-12T23:42:13.010Z,98811.41
2019-02-12T23:44:40.446Z,98814.42
2019-02-12T23:47:07.944Z,98807.00
2019-02-12T23:49:35.451Z,98809.58
2019-02-12T23:52:02.870Z,98808.23
2019-02-12T23:54:30.274Z,98805.18
2019-02-12T23:56:57.657Z,98804.77
2019-02-12T23:59:25.101Z,98809.09
